sensor_id;sensor_type;location;lat;lon;timestamp;P1;durP1;ratioP1;P2;durP2;ratioP2
84774;SDS011;75005;50.966;11.344;2024-03-02T00:00:03;21.02;;;10.82;;
84774;SDS011;75005;50.966;11.344;2024-03-02T00:02:41;24.13;;;12.02;;
84774;SDS011;75005;50.966;11.344;2024-03-02T00:05:07;17.27;;;10.52;;
84774;SDS011;75005;50.966;11.344;2024-03-02T00:07:36;22.02;;;11.10;;
84774;SDS011;75005;50.966;11.344;2024-03-02T00:10:03;22.40;;;11.15;;
84774;SDS011;75005;50.966;11.344;2024-03-02T00:12:35;20.80;;;10.18;;
84774;SDS011;75005;50.966;11.344;2024-03-02T00:15:01;22.15;;;10.70;;
84774;SDS011;75005;50.966;11.344;2024-03-02T00:17:28;17.08;;;11.02;;
84774;SDS011;75005;50.966;11.344;2024-03-02T00:19:54;19.27;;;9.93;;
84774;SDS011;75005;50.966;11.344;2024-03-02T00:22:20;17.95;;;9.95;;
84774;SDS011;75005;50.966;11.344;2024-03-02T00:24:45;21.38;;;10.05;;
84774;SDS011;75005;50.966;11.344;2024-03-02T00:27:12;20.42;;;10.45;;
84774;SDS011;75005;50.966;11.344;2024-03-02T00:29:40;22.30;;;10.85;;
84774;SDS011;75005;50.966;11.344;2024-03-02T00:32:12;20.85;;;10.70;;
84774;SDS011;75005;50.966;11.344;2024-03-02T00:34:39;26.58;;;10.43;;
84774;SDS011;75005;50.966;11.344;2024-03-02T00:37:05;19.65;;;9.15;;
84774;SDS011;75005;50.966;11.344;2024-03-02T00:39:31;23.60;;;10.88;;
84774;SDS011;75005;50.966;11.344;2024-03-02T00:41:57;21.65;;;9.18;;
84774;SDS011;75005;50.966;11.344;2024-03-02T00:44:23;18.73;;;9.85;;
84774;SDS011;75005;50.966;11.344;2024-03-02T00:46:51;18.92;;;10.50;;
84774;SDS011;75005;50.966;11.344;2024-03-02T00:49:21;17.60;;;10.20;;
84774;SDS011;75005;50.966;11.344;2024-03-02T00:51:48;16.02;;;9.50;;
84774;SDS011;75005;50.966;11.344;2024-03-02T00:54:15;17.83;;;8.88;;
84774;SDS011;75005;50.966;11.344;2024-03-02T00:56:45;20.33;;;10.23;;
84774;SDS011;75005;50.966;11.344;2024-03-02T00:59:12;18.58;;;9.10;;
84774;SDS011;75005;50.966;11.344;2024-03-02T01:01:38;14.52;;;9.02;;
84774;SDS011;75005;50.966;11.344;2024-03-02T01:04:03;21.60;;;9.95;;
84774;SDS011;75005;50.966;11.344;2024-03-02T01:06:29;15.68;;;9.73;;
84774;SDS011;75005;50.966;11.344;2024-03-02T01:08:55;17.20;;;9.05;;
84774;SDS011;75005;50.966;11.344;2024-03-02T01:11:21;18.55;;;10.35;;
84774;SDS011;75005;50.966;11.344;2024-03-02T01:13:49;15.25;;;9.00;;
84774;SDS011;75005;50.966;11.344;2024-03-02T01:16:15;18.17;;;9.48;;
84774;SDS011;75005;50.966;11.344;2024-03-02T01:18:41;22.33;;;11.10;;
84774;SDS011;75005;50.966;11.344;2024-03-02T01:21:06;19.08;;;9.70;;
84774;SDS011;75005;50.966;11.344;2024-03-02T01:23:32;22.38;;;9.68;;
84774;SDS011;75005;50.966;11.344;2024-03-02T01:25:57;17.95;;;8.82;;
84774;SDS011;75005;50.966;11.344;2024-03-02T01:28:23;13.77;;;7.90;;
84774;SDS011;75005;50.966;11.344;2024-03-02T01:30:48;18.00;;;9.60;;
84774;SDS011;75005;50.966;11.344;2024-03-02T01:33:14;15.07;;;8.95;;
84774;SDS011;75005;50.966;11.344;2024-03-02T01:35:40;14.25;;;9.13;;
84774;SDS011;75005;50.966;11.344;2024-03-02T01:38:05;18.45;;;8.50;;
84774;SDS011;75005;50.966;11.344;2024-03-02T01:40:33;17.63;;;9.00;;
84774;SDS011;75005;50.966;11.344;2024-03-02T01:42:59;16.48;;;8.85;;
84774;SDS011;75005;50.966;11.344;2024-03-02T01:45:25;21.02;;;9.52;;
84774;SDS011;75005;50.966;11.344;2024-03-02T01:47:50;19.05;;;9.45;;
84774;SDS011;75005;50.966;11.344;2024-03-02T01:50:16;15.65;;;8.52;;
84774;SDS011;75005;50.966;11.344;2024-03-02T01:52:50;17.70;;;8.95;;
84774;SDS011;75005;50.966;11.344;2024-03-02T01:55:16;20.10;;;9.20;;
84774;SDS011;75005;50.966;11.344;2024-03-02T01:57:41;17.48;;;9.18;;
84774;SDS011;75005;50.966;11.344;2024-03-02T02:00:08;17.40;;;9.38;;
84774;SDS011;75005;50.966;11.344;2024-03-02T02:02:34;12.90;;;7.78;;
84774;SDS011;75005;50.966;11.344;2024-03-02T02:05:00;16.30;;;9.30;;
84774;SDS011;75005;50.966;11.344;2024-03-02T02:07:25;14.27;;;8.50;;
84774;SDS011;75005;50.966;11.344;2024-03-02T02:09:51;21.85;;;9.00;;
84774;SDS011;75005;50.966;11.344;2024-03-02T02:12:16;17.00;;;9.68;;
84774;SDS011;75005;50.966;11.344;2024-03-02T02:14:48;18.67;;;10.40;;
84774;SDS011;75005;50.966;11.344;2024-03-02T02:17:14;19.20;;;10.35;;
84774;SDS011;75005;50.966;11.344;2024-03-02T02:19:40;22.13;;;10.00;;
84774;SDS011;75005;50.966;11.344;2024-03-02T02:22:06;18.75;;;9.50;;
84774;SDS011;75005;50.966;11.344;2024-03-02T02:24:31;18.55;;;9.05;;
84774;SDS011;75005;50.966;11.344;2024-03-02T02:26:57;20.00;;;10.43;;
84774;SDS011;75005;50.966;11.344;2024-03-02T02:29:22;16.10;;;9.82;;
84774;SDS011;75005;50.966;11.344;2024-03-02T02:31:47;17.27;;;9.07;;
84774;SDS011;75005;50.966;11.344;2024-03-02T02:34:13;19.90;;;9.52;;
84774;SDS011;75005;50.966;11.344;2024-03-02T02:36:40;19.67;;;9.00;;
84774;SDS011;75005;50.966;11.344;2024-03-02T02:39:05;17.98;;;8.98;;
84774;SDS011;75005;50.966;11.344;2024-03-02T02:41:34;19.85;;;9.52;;
84774;SDS011;75005;50.966;11.344;2024-03-02T02:43:59;18.88;;;10.60;;
84774;SDS011;75005;50.966;11.344;2024-03-02T02:46:24;17.45;;;9.55;;
84774;SDS011;75005;50.966;11.344;2024-03-02T02:48:50;19.30;;;9.73;;
84774;SDS011;75005;50.966;11.344;2024-03-02T02:51:18;20.75;;;10.40;;
84774;SDS011;75005;50.966;11.344;2024-03-02T02:53:43;22.60;;;11.80;;
84774;SDS011;75005;50.966;11.344;2024-03-02T02:56:09;23.10;;;12.63;;
84774;SDS011;75005;50.966;11.344;2024-03-02T02:58:34;24.80;;;12.32;;
84774;SDS011;75005;50.966;11.344;2024-03-02T03:01:00;22.42;;;11.48;;
84774;SDS011;75005;50.966;11.344;2024-03-02T03:03:25;24.80;;;11.63;;
84774;SDS011;75005;50.966;11.344;2024-03-02T03:05:51;22.37;;;10.87;;
84774;SDS011;75005;50.966;11.344;2024-03-02T03:08:16;19.23;;;10.57;;
84774;SDS011;75005;50.966;11.344;2024-03-02T03:10:42;19.45;;;10.10;;
84774;SDS011;75005;50.966;11.344;2024-03-02T03:13:07;17.52;;;9.70;;
84774;SDS011;75005;50.966;11.344;2024-03-02T03:15:37;21.50;;;10.63;;
84774;SDS011;75005;50.966;11.344;2024-03-02T03:18:03;21.23;;;10.63;;
84774;SDS011;75005;50.966;11.344;2024-03-02T03:20:29;18.63;;;9.20;;
84774;SDS011;75005;50.966;11.344;2024-03-02T03:22:55;22.23;;;11.52;;
84774;SDS011;75005;50.966;11.344;2024-03-02T03:25:21;21.52;;;10.85;;
84774;SDS011;75005;50.966;11.344;2024-03-02T03:27:46;21.42;;;11.10;;
84774;SDS011;75005;50.966;11.344;2024-03-02T03:30:12;19.80;;;9.80;;
84774;SDS011;75005;50.966;11.344;2024-03-02T03:32:37;20.15;;;9.02;;
84774;SDS011;75005;50.966;11.344;2024-03-02T03:35:03;17.35;;;8.80;;
84774;SDS011;75005;50.966;11.344;2024-03-02T03:37:29;16.85;;;9.18;;
84774;SDS011;75005;50.966;11.344;2024-03-02T03:40:07;20.67;;;9.23;;
84774;SDS011;75005;50.966;11.344;2024-03-02T03:42:38;21.27;;;9.80;;
84774;SDS011;75005;50.966;11.344;2024-03-02T03:45:04;21.42;;;10.50;;
84774;SDS011;75005;50.966;11.344;2024-03-02T03:47:33;19.92;;;10.65;;
84774;SDS011;75005;50.966;11.344;2024-03-02T03:49:59;19.50;;;9.60;;
84774;SDS011;75005;50.966;11.344;2024-03-02T03:52:24;23.77;;;10.52;;
84774;SDS011;75005;50.966;11.344;2024-03-02T03:54:50;22.08;;;9.55;;
84774;SDS011;75005;50.966;11.344;2024-03-02T03:57:15;18.98;;;10.20;;
84774;SDS011;75005;50.966;11.344;2024-03-02T03:59:41;20.27;;;10.48;;
84774;SDS011;75005;50.966;11.344;2024-03-02T04:02:07;18.30;;;9.68;;
84774;SDS011;75005;50.966;11.344;2024-03-02T04:04:33;25.80;;;10.32;;
84774;SDS011;75005;50.966;11.344;2024-03-02T04:06:58;17.80;;;9.60;;
84774;SDS011;75005;50.966;11.344;2024-03-02T04:09:24;14.68;;;8.50;;
84774;SDS011;75005;50.966;11.344;2024-03-02T04:11:50;18.20;;;9.27;;
84774;SDS011;75005;50.966;11.344;2024-03-02T04:14:16;20.15;;;9.68;;
84774;SDS011;75005;50.966;11.344;2024-03-02T04:16:42;17.35;;;9.48;;
84774;SDS011;75005;50.966;11.344;2024-03-02T04:19:07;15.43;;;8.30;;
84774;SDS011;75005;50.966;11.344;2024-03-02T04:21:32;18.48;;;8.98;;
84774;SDS011;75005;50.966;11.344;2024-03-02T04:23:58;18.25;;;9.70;;
84774;SDS011;75005;50.966;11.344;2024-03-02T04:26:24;16.48;;;9.68;;
84774;SDS011;75005;50.966;11.344;2024-03-02T04:28:53;19.27;;;9.90;;
84774;SDS011;75005;50.966;11.344;2024-03-02T04:31:19;19.95;;;10.43;;
84774;SDS011;75005;50.966;11.344;2024-03-02T04:33:45;21.70;;;10.57;;
84774;SDS011;75005;50.966;11.344;2024-03-02T04:36:10;20.98;;;10.18;;
84774;SDS011;75005;50.966;11.344;2024-03-02T04:38:36;19.92;;;10.88;;
84774;SDS011;75005;50.966;11.344;2024-03-02T04:41:03;20.13;;;9.90;;
84774;SDS011;75005;50.966;11.344;2024-03-02T04:43:31;22.00;;;10.50;;
84774;SDS011;75005;50.966;11.344;2024-03-02T04:45:57;18.75;;;10.50;;
84774;SDS011;75005;50.966;11.344;2024-03-02T04:48:23;22.55;;;10.70;;
84774;SDS011;75005;50.966;11.344;2024-03-02T04:50:48;19.58;;;9.80;;
84774;SDS011;75005;50.966;11.344;2024-03-02T04:53:14;26.85;;;11.18;;
84774;SDS011;75005;50.966;11.344;2024-03-02T04:55:39;19.38;;;9.65;;
84774;SDS011;75005;50.966;11.344;2024-03-02T04:58:05;21.38;;;10.68;;
84774;SDS011;75005;50.966;11.344;2024-03-02T05:00:31;19.35;;;10.63;;
84774;SDS011;75005;50.966;11.344;2024-03-02T05:02:56;20.17;;;10.52;;
84774;SDS011;75005;50.966;11.344;2024-03-02T05:05:22;18.88;;;9.93;;
84774;SDS011;75005;50.966;11.344;2024-03-02T05:07:47;23.42;;;10.27;;
84774;SDS011;75005;50.966;11.344;2024-03-02T05:10:13;25.27;;;11.48;;
84774;SDS011;75005;50.966;11.344;2024-03-02T05:12:39;20.65;;;10.52;;
84774;SDS011;75005;50.966;11.344;2024-03-02T05:15:07;21.08;;;10.90;;
84774;SDS011;75005;50.966;11.344;2024-03-02T05:17:35;19.52;;;9.77;;
84774;SDS011;75005;50.966;11.344;2024-03-02T05:20:10;21.60;;;10.50;;
84774;SDS011;75005;50.966;11.344;2024-03-02T05:22:36;22.60;;;10.95;;
84774;SDS011;75005;50.966;11.344;2024-03-02T05:25:05;19.27;;;9.45;;
84774;SDS011;75005;50.966;11.344;2024-03-02T05:27:31;25.83;;;11.60;;
84774;SDS011;75005;50.966;11.344;2024-03-02T05:29:58;22.95;;;10.27;;
84774;SDS011;75005;50.966;11.344;2024-03-02T05:32:23;23.02;;;10.23;;
84774;SDS011;75005;50.966;11.344;2024-03-02T05:34:49;20.55;;;11.32;;
84774;SDS011;75005;50.966;11.344;2024-03-02T05:37:15;20.90;;;10.93;;
84774;SDS011;75005;50.966;11.344;2024-03-02T05:39:41;19.90;;;10.07;;
84774;SDS011;75005;50.966;11.344;2024-03-02T05:42:08;19.30;;;10.40;;
84774;SDS011;75005;50.966;11.344;2024-03-02T05:44:34;19.95;;;9.40;;
84774;SDS011;75005;50.966;11.344;2024-03-02T05:47:00;21.70;;;11.60;;
84774;SDS011;75005;50.966;11.344;2024-03-02T05:49:25;18.67;;;10.48;;
84774;SDS011;75005;50.966;11.344;2024-03-02T05:51:50;17.50;;;10.25;;
84774;SDS011;75005;50.966;11.344;2024-03-02T05:54:16;21.02;;;11.18;;
84774;SDS011;75005;50.966;11.344;2024-03-02T05:56:41;18.88;;;10.35;;
84774;SDS011;75005;50.966;11.344;2024-03-02T05:59:06;25.55;;;11.68;;
84774;SDS011;75005;50.966;11.344;2024-03-02T06:01:37;27.92;;;12.25;;
84774;SDS011;75005;50.966;11.344;2024-03-02T06:04:13;25.38;;;12.10;;
84774;SDS011;75005;50.966;11.344;2024-03-02T06:06:39;23.88;;;12.05;;
84774;SDS011;75005;50.966;11.344;2024-03-02T06:09:05;19.15;;;10.82;;
84774;SDS011;75005;50.966;11.344;2024-03-02T06:11:34;21.20;;;11.55;;
84774;SDS011;75005;50.966;11.344;2024-03-02T06:14:01;19.10;;;10.52;;
84774;SDS011;75005;50.966;11.344;2024-03-02T06:16:26;28.58;;;12.25;;
84774;SDS011;75005;50.966;11.344;2024-03-02T06:18:52;28.65;;;13.13;;
84774;SDS011;75005;50.966;11.344;2024-03-02T06:21:18;24.77;;;11.50;;
84774;SDS011;75005;50.966;11.344;2024-03-02T06:23:44;24.23;;;14.00;;
84774;SDS011;75005;50.966;11.344;2024-03-02T06:26:10;26.88;;;13.70;;
84774;SDS011;75005;50.966;11.344;2024-03-02T06:28:35;19.40;;;10.77;;
84774;SDS011;75005;50.966;11.344;2024-03-02T06:31:01;18.23;;;10.07;;
84774;SDS011;75005;50.966;11.344;2024-03-02T06:33:27;19.05;;;10.02;;
84774;SDS011;75005;50.966;11.344;2024-03-02T06:35:53;23.70;;;11.43;;
84774;SDS011;75005;50.966;11.344;2024-03-02T06:38:19;21.67;;;11.48;;
84774;SDS011;75005;50.966;11.344;2024-03-02T06:40:44;26.17;;;12.20;;
84774;SDS011;75005;50.966;11.344;2024-03-02T06:43:10;20.73;;;10.57;;
84774;SDS011;75005;50.966;11.344;2024-03-02T06:45:35;25.40;;;12.07;;
84774;SDS011;75005;50.966;11.344;2024-03-02T06:48:01;21.63;;;10.30;;
84774;SDS011;75005;50.966;11.344;2024-03-02T06:50:26;26.33;;;12.70;;
84774;SDS011;75005;50.966;11.344;2024-03-02T06:52:51;26.00;;;12.88;;
84774;SDS011;75005;50.966;11.344;2024-03-02T06:55:17;25.10;;;11.25;;
84774;SDS011;75005;50.966;11.344;2024-03-02T06:57:42;24.40;;;10.65;;
84774;SDS011;75005;50.966;11.344;2024-03-02T07:00:08;19.40;;;10.65;;
84774;SDS011;75005;50.966;11.344;2024-03-02T07:02:34;27.73;;;12.55;;
84774;SDS011;75005;50.966;11.344;2024-03-02T07:05:01;23.15;;;12.35;;
84774;SDS011;75005;50.966;11.344;2024-03-02T07:07:27;20.88;;;9.98;;
84774;SDS011;75005;50.966;11.344;2024-03-02T07:09:52;20.42;;;10.77;;
84774;SDS011;75005;50.966;11.344;2024-03-02T07:12:17;22.42;;;10.65;;
84774;SDS011;75005;50.966;11.344;2024-03-02T07:14:43;20.48;;;10.63;;
84774;SDS011;75005;50.966;11.344;2024-03-02T07:17:36;26.58;;;12.52;;
84774;SDS011;75005;50.966;11.344;2024-03-02T07:20:02;28.63;;;13.23;;
84774;SDS011;75005;50.966;11.344;2024-03-02T07:22:28;25.30;;;12.98;;
84774;SDS011;75005;50.966;11.344;2024-03-02T07:24:54;23.48;;;12.95;;
84774;SDS011;75005;50.966;11.344;2024-03-02T07:27:19;23.17;;;11.25;;
84774;SDS011;75005;50.966;11.344;2024-03-02T07:29:45;32.45;;;19.60;;
84774;SDS011;75005;50.966;11.344;2024-03-02T07:32:10;32.30;;;15.35;;
84774;SDS011;75005;50.966;11.344;2024-03-02T07:34:36;25.65;;;12.48;;
84774;SDS011;75005;50.966;11.344;2024-03-02T07:37:02;26.92;;;12.80;;
84774;SDS011;75005;50.966;11.344;2024-03-02T07:39:28;27.75;;;14.48;;
84774;SDS011;75005;50.966;11.344;2024-03-02T07:41:54;29.27;;;14.90;;
84774;SDS011;75005;50.966;11.344;2024-03-02T07:44:20;24.13;;;13.90;;
84774;SDS011;75005;50.966;11.344;2024-03-02T07:46:46;25.55;;;13.35;;
84774;SDS011;75005;50.966;11.344;2024-03-02T07:49:11;27.08;;;13.55;;
84774;SDS011;75005;50.966;11.344;2024-03-02T07:51:42;27.88;;;13.15;;
84774;SDS011;75005;50.966;11.344;2024-03-02T07:54:08;28.00;;;14.27;;
84774;SDS011;75005;50.966;11.344;2024-03-02T07:56:34;25.92;;;13.35;;
84774;SDS011;75005;50.966;11.344;2024-03-02T07:58:59;28.73;;;14.35;;
84774;SDS011;75005;50.966;11.344;2024-03-02T08:01:28;29.35;;;15.18;;
84774;SDS011;75005;50.966;11.344;2024-03-02T08:03:57;24.42;;;12.73;;
84774;SDS011;75005;50.966;11.344;2024-03-02T08:06:24;24.48;;;13.20;;
84774;SDS011;75005;50.966;11.344;2024-03-02T08:08:52;27.95;;;13.00;;
84774;SDS011;75005;50.966;11.344;2024-03-02T08:11:22;30.83;;;14.70;;
84774;SDS011;75005;50.966;11.344;2024-03-02T08:13:48;27.88;;;13.65;;
84774;SDS011;75005;50.966;11.344;2024-03-02T08:16:14;32.95;;;16.80;;
84774;SDS011;75005;50.966;11.344;2024-03-02T08:18:41;26.77;;;13.27;;
84774;SDS011;75005;50.966;11.344;2024-03-02T08:21:07;27.33;;;12.70;;
84774;SDS011;75005;50.966;11.344;2024-03-02T08:23:33;27.20;;;13.13;;
84774;SDS011;75005;50.966;11.344;2024-03-02T08:25:59;19.58;;;10.95;;
84774;SDS011;75005;50.966;11.344;2024-03-02T08:28:24;18.15;;;8.90;;
84774;SDS011;75005;50.966;11.344;2024-03-02T08:30:50;14.32;;;8.15;;
84774;SDS011;75005;50.966;11.344;2024-03-02T08:33:15;13.40;;;7.07;;
84774;SDS011;75005;50.966;11.344;2024-03-02T08:35:40;11.48;;;6.57;;
84774;SDS011;75005;50.966;11.344;2024-03-02T08:38:06;13.35;;;7.05;;
84774;SDS011;75005;50.966;11.344;2024-03-02T08:40:31;14.60;;;7.07;;
84774;SDS011;75005;50.966;11.344;2024-03-02T08:42:57;12.63;;;7.20;;
84774;SDS011;75005;50.966;11.344;2024-03-02T08:45:22;12.50;;;7.10;;
84774;SDS011;75005;50.966;11.344;2024-03-02T08:47:48;11.88;;;6.70;;
84774;SDS011;75005;50.966;11.344;2024-03-02T08:50:13;12.20;;;7.10;;
84774;SDS011;75005;50.966;11.344;2024-03-02T08:52:39;10.98;;;6.32;;
84774;SDS011;75005;50.966;11.344;2024-03-02T08:55:05;11.98;;;6.53;;
84774;SDS011;75005;50.966;11.344;2024-03-02T08:57:32;10.15;;;6.80;;
84774;SDS011;75005;50.966;11.344;2024-03-02T08:59:57;11.07;;;5.85;;
84774;SDS011;75005;50.966;11.344;2024-03-02T09:02:23;8.68;;;4.85;;
84774;SDS011;75005;50.966;11.344;2024-03-02T09:04:48;8.57;;;4.60;;
84774;SDS011;75005;50.966;11.344;2024-03-02T09:07:14;7.53;;;4.55;;
84774;SDS011;75005;50.966;11.344;2024-03-02T09:09:40;7.40;;;4.55;;
84774;SDS011;75005;50.966;11.344;2024-03-02T09:12:05;6.57;;;4.13;;
84774;SDS011;75005;50.966;11.344;2024-03-02T09:14:32;9.63;;;4.65;;
84774;SDS011;75005;50.966;11.344;2024-03-02T09:16:57;7.85;;;5.07;;
84774;SDS011;75005;50.966;11.344;2024-03-02T09:19:23;9.05;;;4.57;;
84774;SDS011;75005;50.966;11.344;2024-03-02T09:21:48;8.10;;;4.13;;
84774;SDS011;75005;50.966;11.344;2024-03-02T09:24:15;10.98;;;5.30;;
84774;SDS011;75005;50.966;11.344;2024-03-02T09:26:40;8.50;;;5.05;;
84774;SDS011;75005;50.966;11.344;2024-03-02T09:29:06;8.85;;;4.95;;
84774;SDS011;75005;50.966;11.344;2024-03-02T09:31:31;8.32;;;5.25;;
84774;SDS011;75005;50.966;11.344;2024-03-02T09:33:57;10.27;;;5.68;;
84774;SDS011;75005;50.966;11.344;2024-03-02T09:36:22;11.05;;;5.00;;
84774;SDS011;75005;50.966;11.344;2024-03-02T09:38:48;10.27;;;4.88;;
84774;SDS011;75005;50.966;11.344;2024-03-02T09:41:14;8.93;;;5.00;;
84774;SDS011;75005;50.966;11.344;2024-03-02T09:43:40;7.68;;;4.95;;
84774;SDS011;75005;50.966;11.344;2024-03-02T09:46:07;7.00;;;3.95;;
84774;SDS011;75005;50.966;11.344;2024-03-02T09:48:37;6.60;;;4.68;;
84774;SDS011;75005;50.966;11.344;2024-03-02T09:51:04;6.88;;;4.90;;
84774;SDS011;75005;50.966;11.344;2024-03-02T09:53:31;11.57;;;6.65;;
84774;SDS011;75005;50.966;11.344;2024-03-02T09:55:58;10.32;;;5.30;;
84774;SDS011;75005;50.966;11.344;2024-03-02T09:58:24;7.63;;;4.88;;
84774;SDS011;75005;50.966;11.344;2024-03-02T10:00:50;8.55;;;4.80;;
84774;SDS011;75005;50.966;11.344;2024-03-02T10:03:15;10.73;;;5.00;;
84774;SDS011;75005;50.966;11.344;2024-03-02T10:05:43;9.30;;;4.90;;
84774;SDS011;75005;50.966;11.344;2024-03-02T10:08:08;10.27;;;4.95;;
84774;SDS011;75005;50.966;11.344;2024-03-02T10:10:38;7.60;;;4.63;;
84774;SDS011;75005;50.966;11.344;2024-03-02T10:13:11;8.85;;;5.00;;
84774;SDS011;75005;50.966;11.344;2024-03-02T10:15:39;8.18;;;4.68;;
84774;SDS011;75005;50.966;11.344;2024-03-02T10:18:08;9.43;;;4.63;;
84774;SDS011;75005;50.966;11.344;2024-03-02T10:20:36;9.32;;;4.68;;
84774;SDS011;75005;50.966;11.344;2024-03-02T10:23:11;7.82;;;4.25;;
84774;SDS011;75005;50.966;11.344;2024-03-02T10:25:38;6.43;;;4.00;;
84774;SDS011;75005;50.966;11.344;2024-03-02T10:28:04;6.93;;;4.15;;
84774;SDS011;75005;50.966;11.344;2024-03-02T10:30:31;7.18;;;4.25;;
84774;SDS011;75005;50.966;11.344;2024-03-02T10:32:57;7.20;;;4.35;;
84774;SDS011;75005;50.966;11.344;2024-03-02T10:35:22;6.30;;;4.55;;
84774;SDS011;75005;50.966;11.344;2024-03-02T10:37:48;7.35;;;4.30;;
84774;SDS011;75005;50.966;11.344;2024-03-02T10:40:14;6.97;;;4.13;;
84774;SDS011;75005;50.966;11.344;2024-03-02T10:42:41;6.43;;;5.05;;
84774;SDS011;75005;50.966;11.344;2024-03-02T10:45:08;6.93;;;4.85;;
84774;SDS011;75005;50.966;11.344;2024-03-02T10:47:36;7.75;;;4.30;;
84774;SDS011;75005;50.966;11.344;2024-03-02T10:50:04;8.63;;;4.43;;
84774;SDS011;75005;50.966;11.344;2024-03-02T10:52:36;8.30;;;4.70;;
84774;SDS011;75005;50.966;11.344;2024-03-02T10:55:03;7.88;;;4.03;;
84774;SDS011;75005;50.966;11.344;2024-03-02T10:57:40;7.20;;;3.40;;
84774;SDS011;75005;50.966;11.344;2024-03-02T11:00:18;5.80;;;3.38;;
84774;SDS011;75005;50.966;11.344;2024-03-02T11:02:55;6.18;;;3.55;;
84774;SDS011;75005;50.966;11.344;2024-03-02T11:05:28;6.22;;;3.75;;
84774;SDS011;75005;50.966;11.344;2024-03-02T11:07:57;6.72;;;4.15;;
84774;SDS011;75005;50.966;11.344;2024-03-02T11:10:31;7.65;;;4.53;;
84774;SDS011;75005;50.966;11.344;2024-03-02T11:13:05;6.25;;;4.05;;
84774;SDS011;75005;50.966;11.344;2024-03-02T11:15:34;9.98;;;4.63;;
84774;SDS011;75005;50.966;11.344;2024-03-02T11:18:02;6.60;;;3.95;;
84774;SDS011;75005;50.966;11.344;2024-03-02T11:20:30;8.35;;;5.28;;
84774;SDS011;75005;50.966;11.344;2024-03-02T11:22:56;7.18;;;4.55;;
84774;SDS011;75005;50.966;11.344;2024-03-02T11:25:22;7.32;;;4.75;;
84774;SDS011;75005;50.966;11.344;2024-03-02T11:33:07;8.70;;;5.13;;
84774;SDS011;75005;50.966;11.344;2024-03-02T11:35:52;9.55;;;5.43;;
84774;SDS011;75005;50.966;11.344;2024-03-02T11:38:18;14.05;;;6.45;;
84774;SDS011;75005;50.966;11.344;2024-03-02T11:40:44;9.48;;;5.85;;
84774;SDS011;75005;50.966;11.344;2024-03-02T11:43:09;11.43;;;6.75;;
84774;SDS011;75005;50.966;11.344;2024-03-02T11:45:36;6.85;;;4.47;;
84774;SDS011;75005;50.966;11.344;2024-03-02T11:48:05;8.32;;;4.50;;
84774;SDS011;75005;50.966;11.344;2024-03-02T11:53:06;6.70;;;4.32;;
84774;SDS011;75005;50.966;11.344;2024-03-02T11:55:37;8.43;;;4.90;;
84774;SDS011;75005;50.966;11.344;2024-03-02T11:58:04;12.63;;;5.20;;
84774;SDS011;75005;50.966;11.344;2024-03-02T12:00:30;9.10;;;4.13;;
84774;SDS011;75005;50.966;11.344;2024-03-02T12:03:02;7.80;;;4.05;;
84774;SDS011;75005;50.966;11.344;2024-03-02T12:05:30;10.90;;;5.45;;
84774;SDS011;75005;50.966;11.344;2024-03-02T12:07:57;8.60;;;4.47;;
84774;SDS011;75005;50.966;11.344;2024-03-02T12:10:24;6.30;;;4.05;;
84774;SDS011;75005;50.966;11.344;2024-03-02T12:12:59;8.57;;;4.53;;
84774;SDS011;75005;50.966;11.344;2024-03-02T12:15:27;5.97;;;3.83;;
84774;SDS011;75005;50.966;11.344;2024-03-02T12:17:54;7.18;;;4.72;;
84774;SDS011;75005;50.966;11.344;2024-03-02T12:20:20;7.47;;;4.30;;
84774;SDS011;75005;50.966;11.344;2024-03-02T12:22:55;5.95;;;3.28;;
84774;SDS011;75005;50.966;11.344;2024-03-02T12:25:25;7.15;;;3.80;;
84774;SDS011;75005;50.966;11.344;2024-03-02T12:27:54;5.60;;;3.10;;
84774;SDS011;75005;50.966;11.344;2024-03-02T12:30:21;6.50;;;3.45;;
84774;SDS011;75005;50.966;11.344;2024-03-02T12:32:47;4.60;;;3.05;;
84774;SDS011;75005;50.966;11.344;2024-03-02T12:35:13;8.68;;;3.70;;
84774;SDS011;75005;50.966;11.344;2024-03-02T12:37:43;10.05;;;3.47;;
84774;SDS011;75005;50.966;11.344;2024-03-02T12:40:13;5.05;;;2.88;;
84774;SDS011;75005;50.966;11.344;2024-03-02T12:42:39;5.57;;;3.33;;
84774;SDS011;75005;50.966;11.344;2024-03-02T12:45:06;5.65;;;3.47;;
84774;SDS011;75005;50.966;11.344;2024-03-02T12:47:33;5.47;;;3.78;;
84774;SDS011;75005;50.966;11.344;2024-03-02T12:49:59;9.65;;;5.07;;
84774;SDS011;75005;50.966;11.344;2024-03-02T12:52:25;5.45;;;3.40;;
84774;SDS011;75005;50.966;11.344;2024-03-02T12:54:51;4.53;;;3.08;;
84774;SDS011;75005;50.966;11.344;2024-03-02T12:57:21;5.70;;;3.70;;
84774;SDS011;75005;50.966;11.344;2024-03-02T12:59:46;4.47;;;2.88;;
84774;SDS011;75005;50.966;11.344;2024-03-02T13:02:18;5.97;;;3.15;;
84774;SDS011;75005;50.966;11.344;2024-03-02T13:04:44;6.07;;;3.63;;
84774;SDS011;75005;50.966;11.344;2024-03-02T13:07:10;8.75;;;3.30;;
84774;SDS011;75005;50.966;11.344;2024-03-02T13:09:37;8.13;;;3.53;;
84774;SDS011;75005;50.966;11.344;2024-03-02T13:12:02;6.50;;;3.70;;
84774;SDS011;75005;50.966;11.344;2024-03-02T13:14:31;5.90;;;2.97;;
84774;SDS011;75005;50.966;11.344;2024-03-02T13:16:57;7.47;;;3.80;;
84774;SDS011;75005;50.966;11.344;2024-03-02T13:19:25;7.65;;;3.97;;
84774;SDS011;75005;50.966;11.344;2024-03-02T13:21:50;7.18;;;4.20;;
84774;SDS011;75005;50.966;11.344;2024-03-02T13:24:16;5.22;;;3.35;;
84774;SDS011;75005;50.966;11.344;2024-03-02T13:26:41;6.47;;;3.45;;
84774;SDS011;75005;50.966;11.344;2024-03-02T13:29:07;7.13;;;3.35;;
84774;SDS011;75005;50.966;11.344;2024-03-02T13:31:33;6.13;;;3.40;;
84774;SDS011;75005;50.966;11.344;2024-03-02T13:34:01;6.88;;;3.30;;
84774;SDS011;75005;50.966;11.344;2024-03-02T13:36:26;12.02;;;3.75;;
84774;SDS011;75005;50.966;11.344;2024-03-02T13:38:52;4.78;;;3.05;;
84774;SDS011;75005;50.966;11.344;2024-03-02T13:41:17;5.18;;;3.72;;
84774;SDS011;75005;50.966;11.344;2024-03-02T13:43:43;4.93;;;3.22;;
84774;SDS011;75005;50.966;11.344;2024-03-02T13:46:10;6.35;;;3.70;;
84774;SDS011;75005;50.966;11.344;2024-03-02T13:48:35;4.18;;;2.83;;
84774;SDS011;75005;50.966;11.344;2024-03-02T13:51:03;6.20;;;3.55;;
84774;SDS011;75005;50.966;11.344;2024-03-02T13:53:29;4.80;;;3.13;;
84774;SDS011;75005;50.966;11.344;2024-03-02T13:55:54;5.57;;;2.80;;
84774;SDS011;75005;50.966;11.344;2024-03-02T13:58:20;5.78;;;3.50;;
84774;SDS011;75005;50.966;11.344;2024-03-02T14:00:46;4.93;;;3.22;;
84774;SDS011;75005;50.966;11.344;2024-03-02T14:03:11;6.22;;;3.35;;
84774;SDS011;75005;50.966;11.344;2024-03-02T14:08:06;3.97;;;2.40;;
84774;SDS011;75005;50.966;11.344;2024-03-02T14:10:31;6.70;;;2.35;;
84774;SDS011;75005;50.966;11.344;2024-03-02T14:12:57;5.45;;;3.15;;
84774;SDS011;75005;50.966;11.344;2024-03-02T14:15:23;4.78;;;2.78;;
84774;SDS011;75005;50.966;11.344;2024-03-02T14:17:49;4.40;;;2.85;;
84774;SDS011;75005;50.966;11.344;2024-03-02T14:20:15;4.97;;;2.90;;
84774;SDS011;75005;50.966;11.344;2024-03-02T14:22:46;6.78;;;2.88;;
84774;SDS011;75005;50.966;11.344;2024-03-02T14:25:14;6.55;;;3.22;;
84774;SDS011;75005;50.966;11.344;2024-03-02T14:27:42;5.57;;;3.33;;